Time;durP1;ratioP1;P1;durP2;ratioP2;P2;SDS_P1;SDS_P2;PMS_P1;PMS_P2;Temp;Humidity;BMP_temperature;BMP_pressure;BME280_temperature;BME280_humidity;BME280_pressure;Samples;Min_cycle;Max_cycle;Signal;HPM_P1;HPM_P2
2023/11/29 00:01:30;;;;;;;23.05;18.35;;;;;;;0.62;100.00;95091.38;5037151;28;20036;-63
2023/11/29 00:03:56;;;;;;;25.38;21.27;;;;;;;0.66;100.00;95086.84;5024663;28;20041;-64
2023/11/29 00:06:21;;;;;;;23.80;20.55;;;;;;;0.65;100.00;95085.19;5019693;28;20026;-63
2023/11/29 00:08:46;;;;;;;35.45;25.52;;;;;;;0.60;100.00;95090.63;5007626;28;20509;-64
2023/11/29 00:11:12;;;;;;;29.45;22.15;;;;;;;0.77;100.00;95091.34;5026267;28;20083;-64
2023/11/29 00:13:37;;;;;;;24.40;19.15;;;;;;;0.68;100.00;95085.84;5017226;28;20033;-64
2023/11/29 00:16:03;;;;;;;22.90;18.98;;;;;;;0.71;100.00;95093.41;5020169;28;20026;-64
2023/11/29 00:18:28;;;;;;;20.23;17.20;;;;;;;0.70;100.00;95102.13;5025614;28;20557;-64
2023/11/29 00:20:53;;;;;;;26.38;19.35;;;;;;;0.69;100.00;95097.00;5027165;28;20426;-64
2023/11/29 00:23:19;;;;;;;24.02;18.92;;;;;;;0.69;100.00;95097.00;5027924;28;20443;-64
2023/11/29 00:25:44;;;;;;;22.10;18.30;;;;;;;0.72;100.00;95104.59;5024929;28;20022;-64
2023/11/29 00:28:10;;;;;;;23.48;17.55;;;;;;;0.73;100.00;95095.06;5021524;28;20057;-63
2023/11/29 00:30:35;;;;;;;23.25;19.33;;;;;;;0.77;100.00;95099.94;5026461;28;20026;-63
2023/11/29 00:33:00;;;;;;;27.02;18.95;;;;;;;0.77;100.00;95104.31;5023423;28;20029;-63
2023/11/29 00:35:26;;;;;;;26.30;19.10;;;;;;;0.72;100.00;95102.00;5022165;28;20064;-63
2023/11/29 00:37:51;;;;;;;39.95;21.15;;;;;;;0.70;100.00;95106.44;5023035;28;20102;-64
2023/11/29 00:40:17;;;;;;;31.15;19.70;;;;;;;0.70;100.00;95109.03;5024410;28;20061;-64
2023/11/29 00:42:43;;;;;;;24.35;16.95;;;;;;;0.74;100.00;95107.09;5025439;28;20088;-64
2023/11/29 00:45:09;;;;;;;19.45;14.95;;;;;;;0.75;100.00;95106.16;5022897;28;20040;-64
2023/11/29 00:47:34;;;;;;;13.43;11.95;;;;;;;0.75;100.00;95104.38;5023330;28;20026;-64
2023/11/29 00:50:00;;;;;;;11.82;10.68;;;;;;;0.75;100.00;95098.41;5028463;28;20060;-64
2023/11/29 00:52:25;;;;;;;12.07;10.88;;;;;;;0.75;100.00;95101.81;5022524;28;20038;-64
2023/11/29 00:54:50;;;;;;;11.43;10.38;;;;;;;0.79;100.00;95105.88;5017916;28;20508;-63
2023/11/29 00:57:16;;;;;;;12.88;11.57;;;;;;;0.83;100.00;95104.75;5025695;28;20046;-64
2023/11/29 00:59:41;;;;;;;11.93;10.60;;;;;;;0.81;100.00;95108.38;5027143;28;20025;-63
2023/11/29 01:02:06;;;;;;;13.07;11.80;;;;;;;0.80;100.00;95112.72;5024226;28;20085;-63
2023/11/29 01:04:32;;;;;;;12.90;11.38;;;;;;;0.80;100.00;95110.13;5023862;28;20017;-65
2023/11/29 01:06:57;;;;;;;12.02;10.93;;;;;;;0.82;100.00;95115.22;5021183;28;20025;-63
2023/11/29 01:09:23;;;;;;;12.65;11.38;;;;;;;0.83;100.00;95114.28;5024089;28;20033;-63
2023/11/29 01:11:48;;;;;;;12.45;11.20;;;;;;;0.82;100.00;95123.84;5021412;28;20048;-63
2023/11/29 01:14:13;;;;;;;13.75;12.35;;;;;;;0.82;100.00;95128.16;5023350;28;20478;-63
2023/11/29 01:16:39;;;;;;;16.40;12.98;;;;;;;0.85;100.00;95121.03;5023924;28;20073;-63
2023/11/29 01:19:04;;;;;;;13.68;12.45;;;;;;;0.84;100.00;95127.16;5028589;28;20096;-63
2023/11/29 01:21:29;;;;;;;13.40;11.27;;;;;;;0.83;100.00;95128.09;5023543;28;20072;-63
2023/11/29 01:23:55;;;;;;;14.40;12.43;;;;;;;0.84;100.00;95121.13;5028514;28;20025;-63
2023/11/29 01:26:20;;;;;;;12.77;11.55;;;;;;;0.88;100.00;95129.56;5023895;28;20411;-63
2023/11/29 01:28:45;;;;;;;11.52;10.43;;;;;;;0.90;100.00;95132.88;5023022;28;20085;-63
2023/11/29 01:31:12;;;;;;;11.30;10.30;;;;;;;0.90;100.00;95138.91;5025789;28;20022;-63
2023/11/29 01:33:38;;;;;;;12.13;11.02;;;;;;;0.87;100.00;95140.84;5025410;28;20106;-63
2023/11/29 01:36:08;;;;;;;11.15;10.02;;;;;;;0.85;100.00;95139.19;5030562;28;20037;-64
2023/11/29 01:38:33;;;;;;;18.10;12.82;;;;;;;0.82;100.00;95144.56;5026732;28;20750;-63
2023/11/29 01:40:59;;;;;;;15.27;13.30;;;;;;;0.85;100.00;95138.34;5034341;28;20033;-63
2023/11/29 01:43:24;;;;;;;15.93;14.20;;;;;;;0.84;100.00;95144.44;5021870;28;20033;-63
2023/11/29 01:45:50;;;;;;;17.23;14.43;;;;;;;0.77;100.00;95145.78;5042996;28;20028;-63
2023/11/29 01:48:16;;;;;;;15.90;13.32;;;;;;;0.77;100.00;95146.59;5025031;28;21162;-63
2023/11/29 01:50:45;;;;;;;16.17;13.65;;;;;;;0.80;100.00;95141.25;5028104;28;20030;-63
2023/11/29 01:53:10;;;;;;;15.02;13.38;;;;;;;0.82;100.00;95149.75;5024444;28;20050;-63
2023/11/29 01:55:38;;;;;;;14.68;12.63;;;;;;;0.82;100.00;95143.72;5029973;28;20517;-63
2023/11/29 01:58:03;;;;;;;14.80;13.25;;;;;;;0.81;100.00;95139.47;5024222;28;20026;-63
2023/11/29 02:00:29;;;;;;;12.50;11.30;;;;;;;0.82;100.00;95149.75;5022144;28;20538;-63
2023/11/29 02:02:55;;;;;;;12.45;11.15;;;;;;;0.78;100.00;95148.28;5024762;28;20490;-63
2023/11/29 02:05:21;;;;;;;12.65;10.70;;;;;;;0.77;100.00;95153.53;5024760;28;20030;-63
2023/11/29 02:07:46;;;;;;;12.13;11.02;;;;;;;0.80;100.00;95142.97;5026490;28;20602;-63
2023/11/29 02:10:12;;;;;;;11.57;10.43;;;;;;;0.83;100.00;95158.34;5032177;28;20041;-63
2023/11/29 02:12:37;;;;;;;12.18;11.07;;;;;;;0.78;100.00;95153.47;5022572;28;20018;-63
2023/11/29 02:15:03;;;;;;;11.30;10.13;;;;;;;0.82;100.00;95149.75;5025198;28;20033;-63
2023/11/29 02:17:29;;;;;;;12.18;11.02;;;;;;;0.78;100.00;95147.44;5026705;28;20387;-63
2023/11/29 02:19:54;;;;;;;11.65;10.55;;;;;;;0.77;100.00;95148.38;5022680;28;20034;-63
2023/11/29 02:22:21;;;;;;;13.05;11.65;;;;;;;0.74;100.00;95148.56;5028291;28;20032;-64
2023/11/29 02:24:47;;;;;;;13.10;11.80;;;;;;;0.74;100.00;95146.78;5023435;28;20029;-63
2023/11/29 02:27:12;;;;;;;13.05;11.85;;;;;;;0.78;100.00;95144.84;5030728;28;20032;-62
2023/11/29 02:29:39;;;;;;;12.73;11.52;;;;;;;0.82;100.00;95144.56;5024576;28;20029;-63
2023/11/29 02:32:05;;;;;;;12.88;11.48;;;;;;;0.82;100.00;95135.94;5032557;28;20513;-63
2023/11/29 02:34:30;;;;;;;13.27;11.88;;;;;;;0.77;100.00;95138.81;5031222;28;20029;-63
2023/11/29 02:36:56;;;;;;;12.57;11.35;;;;;;;0.82;100.00;95148.91;5028212;28;20406;-63
2023/11/29 02:39:21;;;;;;;11.57;10.38;;;;;;;0.83;100.00;95143.63;5025671;28;20108;-63
2023/11/29 02:41:46;;;;;;;11.20;10.10;;;;;;;0.85;100.00;95144.38;5027607;28;20120;-63
2023/11/29 02:44:12;;;;;;;10.63;9.73;;;;;;;0.87;100.00;95146.03;5024906;28;20025;-63
2023/11/29 02:46:37;;;;;;;10.18;9.18;;;;;;;0.87;100.00;95146.84;5025432;28;20120;-63
2023/11/29 02:49:03;;;;;;;9.02;8.13;;;;;;;0.85;100.00;95146.97;5029507;28;20034;-63
2023/11/29 02:51:29;;;;;;;9.25;8.45;;;;;;;0.79;100.00;95157.72;5029072;28;20582;-63
2023/11/29 02:53:56;;;;;;;8.98;8.18;;;;;;;0.83;100.00;95160.94;5023928;28;20061;-64
2023/11/29 02:56:21;;;;;;;9.75;8.77;;;;;;;0.83;100.00;95158.34;5023643;28;20037;-63
2023/11/29 02:58:47;;;;;;;8.85;8.07;;;;;;;0.81;100.00;95165.38;5025191;28;20045;-63
2023/11/29 03:01:13;;;;;;;10.95;9.10;;;;;;;0.77;100.00;95156.94;5016875;28;20060;-63
2023/11/29 03:03:38;;;;;;;10.20;8.93;;;;;;;0.79;100.00;95154.28;5022278;28;20029;-63
2023/11/29 03:06:04;;;;;;;9.35;8.45;;;;;;;0.80;100.00;95161.13;5030793;28;20037;-63
2023/11/29 03:08:29;;;;;;;7.72;7.00;;;;;;;0.78;100.00;95166.41;5026054;28;20540;-63
2023/11/29 03:10:55;;;;;;;6.30;5.70;;;;;;;0.79;100.00;95168.09;5028092;28;20506;-63
2023/11/29 03:13:20;;;;;;;7.00;6.40;;;;;;;0.80;100.00;95169.75;5026006;28;20098;-63
2023/11/29 03:15:45;;;;;;;6.38;5.78;;;;;;;0.77;100.00;95182.88;5026832;28;20029;-63
2023/11/29 03:18:11;;;;;;;4.88;4.47;;;;;;;0.78;100.00;95188.91;5028754;28;20500;-63
2023/11/29 03:20:36;;;;;;;3.88;3.58;;;;;;;0.76;100.00;95186.38;5025347;28;20151;-63
2023/11/29 03:23:02;;;;;;;3.38;3.17;;;;;;;0.64;100.00;95211.28;5025422;28;20105;-63
2023/11/29 03:25:27;;;;;;;3.03;2.90;;;;;;;0.64;100.00;95213.06;5031951;28;20025;-63
2023/11/29 03:27:53;;;;;;;2.25;2.15;;;;;;;0.65;100.00;95212.97;5025395;28;20127;-63
2023/11/29 03:30:19;;;;;;;2.20;2.10;;;;;;;0.57;100.00;95229.00;5026189;28;20026;-63
2023/11/29 03:32:45;;;;;;;2.60;2.50;;;;;;;0.54;100.00;95231.72;5025478;28;20036;-63
2023/11/29 03:35:10;;;;;;;3.40;2.33;;;;;;;0.56;100.00;95242.03;5030989;28;20025;-63
2023/11/29 03:37:36;;;;;;;3.17;2.58;;;;;;;0.61;100.00;95241.75;5028755;28;20025;-64
2023/11/29 03:40:01;;;;;;;2.83;2.63;;;;;;;0.60;100.00;95247.88;5025887;28;20024;-64
2023/11/29 03:42:27;;;;;;;2.60;2.50;;;;;;;0.67;100.00;95246.56;5027129;28;20030;-63
2023/11/29 03:44:52;;;;;;;2.70;2.53;;;;;;;0.61;100.00;95252.13;5020844;28;20033;-63
2023/11/29 03:47:17;;;;;;;2.50;2.40;;;;;;;0.59;100.00;95259.16;5029479;28;20064;-63
2023/11/29 03:49:43;;;;;;;2.15;2.05;;;;;;;0.58;100.00;95260.91;5019622;28;20025;-63
2023/11/29 03:52:08;;;;;;;2.38;2.17;;;;;;;0.50;100.00;95274.28;5021621;28;20057;-63
2023/11/29 03:54:34;;;;;;;4.20;2.72;;;;;;;0.53;100.00;95268.94;5024637;28;20038;-63
2023/11/29 03:56:59;;;;;;;2.20;2.00;;;;;;;0.49;100.00;95270.03;5029511;28;20108;-63
2023/11/29 03:59:24;;;;;;;1.90;1.80;;;;;;;0.48;100.00;95270.97;5023979;28;20125;-63
2023/11/29 04:01:50;;;;;;;2.03;1.92;;;;;;;0.42;100.00;95272.16;5020038;28;20037;-63
2023/11/29 04:04:15;;;;;;;2.10;2.00;;;;;;;0.39;100.00;95266.34;5026012;28;20033;-63
2023/11/29 04:06:41;;;;;;;1.95;1.85;;;;;;;0.39;100.00;95277.53;5026436;28;20025;-63
2023/11/29 04:09:06;;;;;;;2.03;1.92;;;;;;;0.49;100.00;95277.81;5028233;28;20061;-63
2023/11/29 04:11:32;;;;;;;2.30;2.20;;;;;;;0.49;100.00;95279.59;5022463;28;20328;-63
2023/11/29 04:13:57;;;;;;;1.95;1.92;;;;;;;0.54;100.00;95278.38;5024215;28;20064;-63
2023/11/29 04:16:25;;;;;;;1.80;1.75;;;;;;;0.52;100.00;95280.22;5020880;28;20041;-63
2023/11/29 04:18:51;;;;;;;1.98;1.90;;;;;;;0.50;100.00;95284.66;5023825;28;20034;-64
2023/11/29 04:21:32;;;;;;;2.10;2.00;;;;;;;0.53;100.00;95291.44;5026605;28;20037;-63
2023/11/29 04:23:57;;;;;;;1.80;1.80;;;;;;;0.56;100.00;95293.84;5027618;28;20037;-63
2023/11/29 04:26:34;;;;;;;2.08;1.98;;;;;;;0.55;100.00;95293.00;5027743;28;20750;-63
2023/11/29 04:29:01;;;;;;;2.22;2.13;;;;;;;0.53;100.00;95289.66;5024040;28;20033;-63
2023/11/29 04:31:26;;;;;;;3.47;2.45;;;;;;;0.54;100.00;95295.69;5024847;28;20147;-63
2023/11/29 04:33:52;;;;;;;1.70;1.70;;;;;;;0.48;100.00;95290.88;5026253;28;20112;-63
2023/11/29 04:36:18;;;;;;;2.83;2.63;;;;;;;0.39;100.00;95285.28;5022406;28;20037;-63
2023/11/29 04:38:45;;;;;;;1.95;1.85;;;;;;;0.33;100.00;95283.06;5023457;28;20030;-63
2023/11/29 04:41:10;;;;;;;2.30;2.10;;;;;;;0.31;100.00;95286.66;5023645;28;20037;-63
2023/11/29 04:43:36;;;;;;;2.15;2.05;;;;;;;0.27;100.00;95276.47;5025965;28;20502;-63
2023/11/29 04:46:02;;;;;;;56.17;26.85;;;;;;;0.22;100.00;95275.91;5023973;28;20037;-63
2023/11/29 04:48:27;;;;;;;10.63;6.93;;;;;;;0.24;100.00;95279.25;5026640;28;20017;-63
2023/11/29 04:50:53;;;;;;;9.43;6.88;;;;;;;0.25;100.00;95277.50;5025280;28;20032;-63
2023/11/29 04:53:18;;;;;;;11.70;8.00;;;;;;;0.23;100.00;95274.19;5030902;28;20049;-63
2023/11/29 04:55:43;;;;;;;5.85;5.28;;;;;;;0.20;100.00;95282.94;5027600;28;20033;-63
2023/11/29 04:58:09;;;;;;;4.72;4.20;;;;;;;0.20;100.00;95282.09;5031565;28;20140;-63
2023/11/29 05:00:34;;;;;;;14.55;9.20;;;;;;;0.14;100.00;95280.72;5009672;28;20402;-63
2023/11/29 05:03:00;;;;;;;9.70;6.28;;;;;;;0.08;100.00;95273.28;5024508;28;20033;-63
2023/11/29 05:05:25;;;;;;;19.65;12.43;;;;;;;-0.03;100.00;95269.56;5031432;28;20065;-63
2023/11/29 05:07:53;;;;;;;26.20;14.13;;;;;;;-0.10;100.00;95267.41;5026902;28;20121;-63
2023/11/29 05:10:19;;;;;;;5.55;4.50;;;;;;;-0.19;100.00;95261.00;5029569;28;20372;-63
2023/11/29 05:12:44;;;;;;;10.55;6.88;;;;;;;-0.28;100.00;95262.34;5030284;28;20048;-63
2023/11/29 05:15:10;;;;;;;18.65;12.00;;;;;;;-0.32;100.00;95263.44;5028639;28;20033;-63
2023/11/29 05:17:35;;;;;;;14.57;9.55;;;;;;;-0.38;100.00;95262.03;5027385;28;20026;-63
2023/11/29 05:20:01;;;;;;;10.57;7.60;;;;;;;-0.43;100.00;95261.47;5006365;28;20530;-63
2023/11/29 05:22:26;;;;;;;2.65;2.45;;;;;;;-0.56;100.00;95278.56;5033055;28;20040;-63
2023/11/29 05:24:51;;;;;;;9.98;6.85;;;;;;;-0.64;100.00;95286.75;5033039;28;20100;-63
2023/11/29 05:27:17;;;;;;;15.70;9.40;;;;;;;-0.62;100.00;95285.75;5027256;28;20444;-63
2023/11/29 05:29:42;;;;;;;5.75;5.10;;;;;;;-0.64;100.00;95290.16;5026268;28;20030;-63
2023/11/29 05:32:08;;;;;;;3.92;2.55;;;;;;;-0.70;100.00;95293.09;5031925;28;20033;-63
2023/11/29 05:34:34;;;;;;;17.67;10.63;;;;;;;-0.73;100.00;95301.00;5032826;28;20040;-63
2023/11/29 05:36:59;;;;;;;18.25;10.88;;;;;;;-0.73;100.00;95306.19;5023093;28;20041;-63
2023/11/29 05:39:24;;;;;;;9.98;6.78;;;;;;;-0.77;100.00;95308.09;5022246;28;20079;-62
2023/11/29 05:41:50;;;;;;;7.43;5.40;;;;;;;-0.79;100.00;95314.25;5034286;28;20026;-63
2023/11/29 05:44:15;;;;;;;7.07;5.28;;;;;;;-0.77;100.00;95315.03;5029680;28;20064;-63
2023/11/29 05:46:41;;;;;;;4.57;4.18;;;;;;;-0.82;100.00;95307.50;5026087;28;20030;-63
2023/11/29 05:49:06;;;;;;;4.20;3.90;;;;;;;-0.82;100.00;95322.16;5031048;28;20029;-63
2023/11/29 05:51:32;;;;;;;4.18;3.78;;;;;;;-0.80;100.00;95328.94;5026164;28;20049;-63
2023/11/29 05:53:58;;;;;;;3.60;2.58;;;;;;;-0.78;100.00;95323.66;5030762;28;20160;-63
2023/11/29 05:56:24;;;;;;;4.38;3.97;;;;;;;-0.75;100.00;95321.75;5013090;28;20176;-63
2023/11/29 05:58:49;;;;;;;2.78;2.60;;;;;;;-0.69;100.00;95319.75;5031981;28;20075;-63
2023/11/29 06:01:18;;;;;;;7.30;5.63;;;;;;;-0.72;100.00;95313.84;5023705;28;20103;-63
2023/11/29 06:03:43;;;;;;;14.55;9.55;;;;;;;-0.72;100.00;95313.84;5027584;28;20057;-63
2023/11/29 06:06:10;;;;;;;12.15;8.52;;;;;;;-0.69;100.00;95309.41;5019364;28;20123;-63
2023/11/29 06:08:35;;;;;;;62.72;33.17;;;;;;;-0.69;100.00;95307.69;5021968;28;20145;-63
2023/11/29 06:11:00;;;;;;;42.30;20.60;;;;;;;-0.66;100.00;95312.69;5032202;28;20128;-63
2023/11/29 06:13:26;;;;;;;58.58;29.75;;;;;;;-0.67;100.00;95310.16;5025849;28;20032;-63
2023/11/29 06:15:51;;;;;;;36.83;18.23;;;;;;;-0.68;100.00;95314.53;5031224;28;20049;-64
2023/11/29 06:18:18;;;;;;;35.05;16.95;;;;;;;-0.70;100.00;95313.78;5033437;28;20021;-64
2023/11/29 06:20:44;;;;;;;7.50;5.85;;;;;;;-0.68;100.00;95309.34;5028192;28;20017;-64
2023/11/29 06:23:09;;;;;;;29.35;14.25;;;;;;;-0.66;100.00;95311.88;5028606;28;20032;-64
2023/11/29 06:25:34;;;;;;;11.98;8.07;;;;;;;-0.68;100.00;95317.09;5031459;28;20053;-64
2023/11/29 06:28:00;;;;;;;9.63;6.25;;;;;;;-0.73;100.00;95317.34;5029100;28;20033;-63
2023/11/29 06:30:25;;;;;;;12.52;7.10;;;;;;;-0.75;100.00;95318.38;5030445;28;20060;-63
2023/11/29 06:32:51;;;;;;;4.15;3.75;;;;;;;-0.84;100.00;95321.41;5026684;28;20507;-63
2023/11/29 06:35:17;;;;;;;5.60;4.18;;;;;;;-0.91;100.00;95311.41;5014249;28;20021;-63
2023/11/29 06:37:46;;;;;;;4.72;4.32;;;;;;;-0.93;100.00;95312.41;5026426;28;20026;-63
2023/11/29 06:40:12;;;;;;;16.42;9.57;;;;;;;-0.97;100.00;95309.16;5025539;28;20029;-64
2023/11/29 06:42:40;;;;;;;23.45;12.75;;;;;;;-0.98;100.00;95309.22;5028603;28;20029;-63
2023/11/29 06:45:05;;;;;;;18.02;11.52;;;;;;;-1.02;100.00;95306.81;5023753;28;20021;-64
2023/11/29 06:47:31;;;;;;;10.88;7.43;;;;;;;-1.08;100.00;95295.97;5025458;28;20029;-64
2023/11/29 06:49:56;;;;;;;5.60;5.07;;;;;;;-1.21;100.00;95295.75;5027399;28;20091;-64
2023/11/29 06:52:22;;;;;;;5.43;4.93;;;;;;;-1.26;100.00;95305.50;5024838;28;20045;-64
2023/11/29 06:54:47;;;;;;;5.95;5.45;;;;;;;-1.29;100.00;95298.75;5033143;28;20479;-64
2023/11/29 06:57:12;;;;;;;6.35;5.85;;;;;;;-1.33;100.00;95292.06;5028855;28;20155;-64
2023/11/29 06:59:38;;;;;;;4.55;4.18;;;;;;;-1.35;100.00;95297.28;5027187;28;20021;-63
2023/11/29 07:02:04;;;;;;;4.93;4.53;;;;;;;-1.39;100.00;95295.78;5036324;28;20048;-65
2023/11/29 07:04:30;;;;;;;4.78;4.40;;;;;;;-1.40;100.00;95298.47;5019277;28;20033;-63
2023/11/29 07:06:56;;;;;;;4.13;3.75;;;;;;;-1.43;100.00;95294.28;5027355;28;20025;-64
2023/11/29 07:09:22;;;;;;;10.40;7.88;;;;;;;-1.43;100.00;95288.31;5021089;28;20096;-64
2023/11/29 07:11:47;;;;;;;8.80;8.00;;;;;;;-1.45;100.00;95289.19;5017294;28;20032;-64
2023/11/29 07:14:13;;;;;;;6.82;6.13;;;;;;;-1.49;100.00;95292.84;5018445;28;20089;-63
2023/11/29 07:16:38;;;;;;;12.13;7.30;;;;;;;-1.51;100.00;95286.09;5017323;28;20056;-63
2023/11/29 07:19:04;;;;;;;8.65;7.40;;;;;;;-1.54;100.00;95286.28;5025270;28;20570;-63
2023/11/29 07:21:29;;;;;;;11.95;7.47;;;;;;;-1.56;100.00;95288.06;5034367;28;20053;-63
2023/11/29 07:23:54;;;;;;;9.55;6.90;;;;;;;-1.59;100.00;95283.91;5025446;28;20026;-63
2023/11/29 07:26:20;;;;;;;8.60;6.90;;;;;;;-1.60;100.00;95287.41;5026085;28;20075;-64
2023/11/29 07:28:47;;;;;;;8.02;7.22;;;;;;;-1.61;100.00;95283.97;5027763;28;20052;-64
2023/11/29 07:31:13;;;;;;;6.78;5.45;;;;;;;-1.63;100.00;95293.56;5019795;28;20068;-64
2023/11/29 07:33:38;;;;;;;6.97;6.20;;;;;;;-1.64;100.00;95294.47;5025923;28;20018;-64
2023/11/29 07:36:12;;;;;;;9.07;8.07;;;;;;;-1.64;100.00;95293.63;5019512;28;20040;-64
2023/11/29 07:38:38;;;;;;;14.30;9.98;;;;;;;-1.65;100.00;95297.13;5021311;28;20605;-64
2023/11/29 07:41:03;;;;;;;14.13;10.70;;;;;;;-1.70;100.00;95306.84;5022417;28;20009;-64
2023/11/29 07:43:29;;;;;;;15.05;11.40;;;;;;;-1.73;100.00;95303.50;5024788;28;20485;-64
2023/11/29 07:45:54;;;;;;;10.18;8.68;;;;;;;-1.76;100.00;95298.50;5025093;28;20025;-64
2023/11/29 07:48:24;;;;;;;9.60;8.70;;;;;;;-1.79;100.00;95301.22;5027427;28;20063;-64
2023/11/29 07:50:50;;;;;;;11.82;9.85;;;;;;;-1.76;100.00;95297.66;5021919;28;20034;-64
2023/11/29 07:53:16;;;;;;;8.38;7.63;;;;;;;-1.76;100.00;95285.59;5030688;28;20045;-64
2023/11/29 07:55:41;;;;;;;7.07;6.45;;;;;;;-1.76;100.00;95280.44;5030564;28;20057;-64
2023/11/29 07:58:06;;;;;;;5.95;5.45;;;;;;;-1.81;100.00;95273.81;5028554;28;20021;-63
2023/11/29 08:00:32;;;;;;;5.32;4.75;;;;;;;-1.90;100.00;95262.19;5026940;28;20033;-63
2023/11/29 08:02:57;;;;;;;5.18;4.70;;;;;;;-1.94;100.00;95261.53;5025948;28;20022;-63
2023/11/29 08:05:27;;;;;;;6.70;5.97;;;;;;;-1.95;100.00;95272.78;5023627;28;20136;-63
2023/11/29 08:07:54;;;;;;;5.45;4.97;;;;;;;-1.93;100.00;95283.00;5021827;28;20045;-63
2023/11/29 08:10:19;;;;;;;12.23;9.65;;;;;;;-1.93;100.00;95280.41;5024264;28;20021;-64
2023/11/29 08:12:46;;;;;;;10.63;8.95;;;;;;;-1.92;100.00;95271.78;5023009;28;20018;-63
2023/11/29 08:15:12;;;;;;;8.93;7.00;;;;;;;-1.85;100.00;95265.41;5022310;28;20519;-64
2023/11/29 08:17:37;;;;;;;8.75;7.88;;;;;;;-1.88;100.00;95268.97;5022397;28;20459;-63
2023/11/29 08:20:05;;;;;;;10.68;9.57;;;;;;;-1.91;100.00;95268.28;5004072;28;20032;-63
2023/11/29 08:22:31;;;;;;;23.50;16.45;;;;;;;-1.94;100.00;95266.69;5017645;28;20038;-64
2023/11/29 08:24:56;;;;;;;26.42;18.40;;;;;;;-1.95;100.00;95251.28;5022969;28;20025;-64
2023/11/29 08:27:23;;;;;;;25.23;18.38;;;;;;;-1.94;100.00;95252.94;5025739;28;20055;-64
2023/11/29 08:29:49;;;;;;;20.85;17.40;;;;;;;-1.91;100.00;95265.69;5028299;28;20018;-63
2023/11/29 08:32:15;;;;;;;27.42;18.40;;;;;;;-1.82;100.00;95270.41;5026795;28;20036;-63
2023/11/29 08:34:40;;;;;;;34.15;25.60;;;;;;;-1.52;100.00;95280.09;5021659;28;20641;-64
2023/11/29 08:37:06;;;;;;;34.60;23.02;;;;;;;-1.68;100.00;95284.34;5027474;28;20032;-63
2023/11/29 08:39:31;;;;;;;32.60;24.13;;;;;;;-1.69;100.00;95290.44;5029940;28;20021;-64
2023/11/29 08:41:57;;;;;;;29.25;24.75;;;;;;;-1.67;100.00;95286.03;5031584;28;20034;-64
2023/11/29 08:44:23;;;;;;;30.60;23.45;;;;;;;-1.65;100.00;95287.63;5028924;28;20104;-64
2023/11/29 08:46:48;;;;;;;27.23;20.00;;;;;;;-1.65;100.00;95286.81;5027673;28;20022;-64
2023/11/29 08:49:15;;;;;;;23.98;19.10;;;;;;;-1.67;100.00;95284.28;5029869;28;20036;-64
2023/11/29 08:51:42;;;;;;;21.80;17.80;;;;;;;-1.63;100.00;95284.97;5029543;28;20053;-63
2023/11/29 08:54:07;;;;;;;23.45;18.25;;;;;;;-1.69;100.00;95282.69;5031340;28;20296;-64
2023/11/29 08:56:33;;;;;;;23.35;17.35;;;;;;;-1.74;100.00;95283.75;5029768;28;20026;-63
2023/11/29 08:58:59;;;;;;;23.13;16.60;;;;;;;-1.70;100.00;95288.75;5028538;28;20021;-64
2023/11/29 09:01:24;;;;;;;29.38;20.70;;;;;;;-1.75;100.00;95279.50;5025073;28;20021;-64
2023/11/29 09:03:50;;;;;;;35.60;23.23;;;;;;;-1.73;100.00;95279.44;5027697;28;20026;-64
2023/11/29 09:06:16;;;;;;;30.67;19.83;;;;;;;-1.71;100.00;95280.19;5025132;28;20022;-63
2023/11/29 09:08:44;;;;;;;22.83;17.30;;;;;;;-1.62;100.00;95284.06;5027663;28;20155;-64
2023/11/29 09:11:10;;;;;;;23.52;17.35;;;;;;;-1.33;100.00;95284.31;5026717;28;20100;-64
2023/11/29 09:13:35;;;;;;;17.30;14.45;;;;;;;-0.85;100.00;95274.06;5026736;28;20111;-63
2023/11/29 09:16:02;;;;;;;15.20;12.65;;;;;;;-0.34;100.00;95275.63;5026841;28;20596;-63
2023/11/29 09:18:28;;;;;;;15.20;13.60;;;;;;;0.07;100.00;95269.03;5026242;28;20032;-64
2023/11/29 09:20:53;;;;;;;15.88;11.80;;;;;;;0.47;100.00;95284.03;5027277;28;20493;-64
2023/11/29 09:23:19;;;;;;;13.27;11.45;;;;;;;0.82;100.00;95284.53;5029618;28;20489;-63
2023/11/29 09:25:44;;;;;;;16.42;13.23;;;;;;;1.18;100.00;95287.56;5030790;28;20116;-64
2023/11/29 09:28:15;;;;;;;20.95;15.82;;;;;;;1.42;100.00;95290.38;5027836;28;20100;-64
2023/11/29 09:30:41;;;;;;;13.68;10.75;;;;;;;1.68;100.00;95298.31;5026871;28;20096;-64
2023/11/29 09:33:07;;;;;;;11.07;9.95;;;;;;;1.76;100.00;95315.16;5033050;28;20037;-64
2023/11/29 09:35:32;;;;;;;6.47;5.90;;;;;;;1.81;100.00;95324.31;5032969;28;20048;-64
2023/11/29 09:37:58;;;;;;;8.27;7.10;;;;;;;1.65;100.00;95316.63;5024093;28;20465;-64
2023/11/29 09:40:24;;;;;;;7.03;6.20;;;;;;;1.68;100.00;95318.22;5025743;28;20030;-64
2023/11/29 09:42:52;;;;;;;5.95;5.45;;;;;;;1.84;100.00;95308.53;5031238;28;20018;-64
2023/11/29 09:45:26;;;;;;;5.32;4.07;;;;;;;1.92;100.00;95299.41;5024241;28;20054;-64
2023/11/29 09:47:51;;;;;;;10.00;5.20;;;;;;;1.82;100.00;95288.78;5026054;28;20573;-64
2023/11/29 09:50:17;;;;;;;7.88;6.35;;;;;;;1.90;100.00;95286.56;5027946;28;20137;-64
2023/11/29 09:52:43;;;;;;;11.18;8.02;;;;;;;2.00;100.00;95279.81;5024262;28;20100;-64
2023/11/29 09:55:12;;;;;;;5.47;4.68;;;;;;;2.01;100.00;95278.06;5026295;28;20028;-64
2023/11/29 09:57:38;;;;;;;4.95;4.18;;;;;;;2.06;100.00;95264.75;5027188;28;20018;-64
2023/11/29 10:00:06;;;;;;;5.55;5.00;;;;;;;2.22;100.00;95259.41;5026725;28;20143;-64
2023/11/29 10:02:31;;;;;;;5.75;5.15;;;;;;;2.20;100.00;95261.25;5023966;28;20033;-63
2023/11/29 10:04:59;;;;;;;6.03;4.68;;;;;;;2.24;100.00;95237.59;5026418;28;20036;-64
2023/11/29 10:07:25;;;;;;;5.93;5.32;;;;;;;2.33;100.00;95243.13;5025166;28;21130;-64
2023/11/29 10:09:50;;;;;;;4.78;4.38;;;;;;;2.43;100.00;95245.00;5024911;28;20090;-64
2023/11/29 10:12:16;;;;;;;4.38;4.07;;;;;;;2.55;100.00;95248.53;5029299;28;20458;-64
2023/11/29 10:14:41;;;;;;;3.63;3.25;;;;;;;2.86;100.00;95222.19;5023160;28;20110;-64
2023/11/29 10:17:13;;;;;;;7.47;4.50;;;;;;;2.79;100.00;95206.22;5030510;28;20076;-64
2023/11/29 10:19:40;;;;;;;4.50;4.00;;;;;;;2.69;100.00;95205.16;5025106;28;20022;-64
2023/11/29 10:22:05;;;;;;;4.93;4.63;;;;;;;2.75;100.00;95201.31;5032569;28;20083;-64
2023/11/29 10:24:31;;;;;;;3.30;2.90;;;;;;;2.90;100.00;95181.22;5026916;28;20041;-64
2023/11/29 10:26:57;;;;;;;3.42;3.13;;;;;;;3.02;100.00;95177.78;5024383;28;20026;-64
2023/11/29 10:29:23;;;;;;;4.05;3.75;;;;;;;2.95;100.00;95182.56;5021491;28;20037;-64
2023/11/29 10:31:51;;;;;;;3.78;3.47;;;;;;;3.09;100.00;95170.34;5031594;28;20022;-65
2023/11/29 10:34:18;;;;;;;3.78;3.47;;;;;;;3.33;100.00;95162.56;5032492;28;20486;-65
2023/11/29 10:36:45;;;;;;;3.60;3.30;;;;;;;3.19;100.00;95160.13;5026335;28;20056;-64
2023/11/29 10:39:23;;;;;;;5.13;4.63;;;;;;;3.12;100.00;95155.34;5028065;28;20040;-64
2023/11/29 10:41:55;;;;;;;7.55;5.07;;;;;;;3.42;100.00;95156.69;5029537;28;20100;-64
2023/11/29 10:44:23;;;;;;;11.30;5.25;;;;;;;3.30;100.00;95139.38;5026699;28;20033;-64
2023/11/29 10:46:55;;;;;;;5.65;5.10;;;;;;;3.47;100.00;95130.34;5025730;28;20030;-64
2023/11/29 10:49:32;;;;;;;3.80;3.50;;;;;;;3.41;100.00;95129.00;5028927;28;20112;-64
2023/11/29 10:51:58;;;;;;;4.15;3.85;;;;;;;3.12;100.00;95118.94;5020741;28;20045;-64
2023/11/29 10:54:24;;;;;;;4.18;3.78;;;;;;;3.15;100.00;95120.50;5019354;28;20025;-64
2023/11/29 10:56:49;;;;;;;3.05;2.85;;;;;;;3.17;100.00;95117.78;5022122;28;20157;-64
2023/11/29 10:59:29;;;;;;;2.75;2.55;;;;;;;3.48;100.00;95111.16;5030262;28;20026;-64
2023/11/29 11:01:55;;;;;;;3.35;3.08;;;;;;;3.54;100.00;95107.28;5030233;28;20021;-64
2023/11/29 11:04:21;;;;;;;3.33;3.00;;;;;;;3.40;100.00;95100.50;5028577;28;20080;-64
2023/11/29 11:06:49;;;;;;;3.10;2.90;;;;;;;3.50;100.00;95109.28;5024766;28;20026;-64
2023/11/29 11:09:42;;;;;;;4.05;3.65;;;;;;;3.73;100.00;95107.59;5024539;28;20048;-64
2023/11/29 11:12:07;;;;;;;3.22;2.97;;;;;;;3.64;100.00;95094.44;5016124;28;20028;-64
2023/11/29 11:14:48;;;;;;;3.10;2.80;;;;;;;3.78;100.00;95091.63;5023985;28;20022;-64
2023/11/29 11:17:14;;;;;;;3.22;2.92;;;;;;;4.00;100.00;95083.03;5024708;28;20038;-64